Freelance — WSP9410 — position and weather

sailwx.info

Track history (hours):
 
Tides and Currents Weather Stations Pressure Air Temp Water Temp Dewpoint Dewpoint Depression Visibility Wind Speed Wind Dir Waves Ship Positions

Freelance

Owner: BROCKMAN, DONALD C, BALBOA, CA. More information available from US FCC via Universal Licensing System and Coast Guard Vessel Documentation Center.

Last reported at 2017-Oct-23 01:20 UTC. Time now 2017-Oct-23 02:41 UTC.
Position N 33°34' W 117°53'.

Length 25 m.

Type: Passenger vessel. MMSI: 366977380.

Date/timePositionNaut miles runAvg speedWind from/ knotsBaromVisibWave heightAir tempDewpointWater temp
2017-Oct-23 01:20N 33°34' W 117°53'610.8
2017-Oct-23 00:44N 33°30' W 117°58'510.7
2017-Oct-23 00:14N 33°27' W 118°04'310.7
2017-Oct-22 23:55N 33°25' W 118°07'3 0.4
2017-Oct-22 15:28N 33°28' W 118°08'510.5
2017-Oct-22 15:00N 33°30' W 118°02'510.4
2017-Oct-22 14:30N 33°33' W 117°57'4 8.9
2017-Oct-22 14:00N 33°36' W 117°53'1 2.4
2017-Oct-22 13:30N 33°36' W 117°54'4 0.5
2017-Oct-22 05:57N 33°37' W 117°58'0 0.1
2017-Oct-22 05:30N 33°37' W 117°58'0 0.5
2017-Oct-22 04:54N 33°37' W 117°58'0 0.0
2017-Oct-22 04:09N 33°37' W 117°58'0 0.7
2017-Oct-22 03:49N 33°37' W 117°58'0 0.1
2017-Oct-22 03:29N 33°37' W 117°58'6 1.8
2017-Oct-22 00:04N 33°31' W 117°59'110.1
2017-Oct-21 23:56N 33°30' W 118°01'510.2
2017-Oct-21 23:29N 33°28' W 118°05'11 9.9
2017-Oct-21 22:21N 33°21' W 118°16'2 5.7
2017-Oct-21 22:00N 33°20' W 118°18'  
2017-Oct-19 16:30N 33°19' W 118°16'25 1.6
2017-Oct-19 00:58N 33°35' W 117°53'510.6
2017-Oct-19 00:30N 33°31' W 117°55'510.4
2017-Oct-19 00:00N 33°28' W 118°01'910.6
2017-Oct-18 23:09N 33°22' W 118°09'211.0
2017-Oct-18 22:59N 33°21' W 118°11'510.4
2017-Oct-18 22:30N 33°19' W 118°16'510.2
2017-Oct-18 22:00N 33°18' W 118°22'4 0.9
2017-Oct-18 17:40N 33°19' W 118°18'0 1.7
2017-Oct-18 17:27N 33°19' W 118°18'1910.2
2017-Oct-18 15:37N 33°31' W 118°01'110.2
2017-Oct-18 15:30N 33°31' W 117°60'6 0.4
2017-Oct-18 01:08N 33°34' W 117°53'110.6
2017-Oct-18 01:00N 33°33' W 117°54'510.3
2017-Oct-18 00:30N 33°30' W 117°58'610.8
2017-Oct-17 23:59N 33°26' W 118°04'610.7
2017-Oct-17 23:25N 33°23' W 118°10'510.5
2017-Oct-17 22:54N 33°21' W 118°16'2 1.8
2017-Oct-17 21:35N 33°19' W 118°18'0 0.1
2017-Oct-17 21:27N 33°19' W 118°18'5 3.6
2017-Oct-17 20:02N 33°19' W 118°24'010.7
2017-Oct-17 20:00N 33°19' W 118°25'2 3.5
2017-Oct-17 19:27N 33°19' W 118°27'2 4.0
2017-Oct-17 19:00N 33°19' W 118°25'0 0.8
2017-Oct-17 18:30N 33°19' W 118°25'5 4.5
2017-Oct-17 17:28N 33°18' W 118°19'510.7
2017-Oct-17 17:00N 33°21' W 118°14'510.5
2017-Oct-17 16:30N 33°24' W 118°10'510.6
2017-Oct-17 16:00N 33°27' W 118°05'510.3
2017-Oct-17 15:30N 33°30' W 117°60'510.3
2017-Oct-17 15:00N 33°34' W 117°55'2 4.2
2017-Oct-17 14:25N 33°35' W 117°53'0 0.8
2017-Oct-17 14:00N 33°36' W 117°53'1 1.1
2017-Oct-17 12:55N 33°36' W 117°54'0 0.0
2017-Oct-17 12:30N 33°36' W 117°54'3 0.2
2017-Oct-17 00:05N 33°34' W 117°54'110.2
2017-Oct-17 00:00N 33°33' W 117°54'510.5
2017-Oct-16 23:30N 33°29' W 117°59'510.6
2017-Oct-16 23:01N 33°26' W 118°03'510.6
2017-Oct-16 22:30N 33°23' W 118°09'16 6.2
2017-Oct-16 19:53N 33°19' W 118°27'0 0.3
2017-Oct-16 19:16N 33°19' W 118°27'10 4.2
2017-Oct-16 16:59N 33°20' W 118°16'510.7
2017-Oct-16 16:30N 33°23' W 118°11'510.8
2017-Oct-16 16:00N 33°27' W 118°06'510.5
2017-Oct-16 15:30N 33°30' W 118°01'710.3
2017-Oct-16 14:47N 33°34' W 117°54'2 0.1
2017-Oct-16 01:11N 33°36' W 117°53'1 7.6
2017-Oct-16 01:00N 33°35' W 117°53'510.1
2017-Oct-16 00:30N 33°32' W 117°58'510.3
2017-Oct-16 00:00N 33°28' W 118°03'510.2
2017-Oct-15 23:30N 33°25' W 118°08'12 2.3
2017-Oct-15 18:12N 33°17' W 118°18'0 0.3
2017-Oct-15 18:01N 33°17' W 118°18'0 0.1
2017-Oct-15 17:30N 33°17' W 118°18'0 0.1
2017-Oct-15 17:00N 33°17' W 118°18'3 5.8
2017-Oct-15 16:30N 33°19' W 118°16'510.7
2017-Oct-15 16:01N 33°22' W 118°10'510.8
2017-Oct-15 15:31N 33°25' W 118°05'510.6
2017-Oct-15 15:00N 33°29' W 118°01'9 9.4
2017-Oct-15 14:01N 33°36' W 117°53'1 2.3
2017-Oct-15 13:30N 33°36' W 117°54'0 0.0
2017-Oct-15 06:41N 33°36' W 117°54'1 5.1
2017-Oct-15 06:30N 33°36' W 117°53'4 8.3
2017-Oct-15 06:01N 33°36' W 117°58'0 0.2
2017-Oct-15 05:31N 33°36' W 117°58'1 0.8
2017-Oct-15 04:39N 33°37' W 117°58'0 0.6
2017-Oct-15 04:02N 33°37' W 117°58'0 7.0
2017-Oct-15 04:00N 33°37' W 117°58'0 0.0
2017-Oct-15 03:30N 33°37' W 117°58'0 0.0
2017-Oct-15 03:00N 33°37' W 117°58'3 6.1
2017-Oct-15 02:30N 33°36' W 117°55'1 2.0
2017-Oct-15 02:00N 33°36' W 117°54'0 0.1
2017-Oct-15 01:30N 33°36' W 117°54'0 0.0
2017-Oct-15 01:01N 33°36' W 117°54'1 2.8
2017-Oct-15 00:30N 33°35' W 117°53'510.6
2017-Oct-15 00:00N 33°32' W 117°58'510.7
2017-Oct-14 23:31N 33°29' W 118°03'510.6
2017-Oct-14 23:01N 33°26' W 118°08'510.4
2017-Oct-14 22:30N 33°23' W 118°13'510.6
2017-Oct-14 22:00N 33°19' W 118°18'0 0.9
2017-Oct-14 21:30N 33°19' W 118°18'2 3.2
2017-Oct-14 21:00N 33°18' W 118°20'0 0.0
2017-Oct-14 20:30N 33°18' W 118°20'2 1.6
2017-Oct-14 19:30N 33°18' W 118°21'2 4.8
2017-Oct-14 19:00N 33°18' W 118°19'0 0.0
2017-Oct-14 18:30N 33°18' W 118°19'2 3.9
2017-Oct-14 17:59N 33°20' W 118°18'1 1.1
2017-Oct-14 17:30N 33°20' W 118°18'0 0.0
2017-Oct-14 17:00N 33°20' W 118°18'0 0.1
2017-Oct-14 16:30N 33°20' W 118°18'3 5.3
2017-Oct-14 16:00N 33°21' W 118°15'910.7
2017-Oct-14 15:07N 33°26' W 118°06'410.5
2017-Oct-14 14:46N 33°29' W 118°03'410.5
2017-Oct-14 14:25N 33°31' W 117°59'610.4
2017-Oct-14 13:48N 33°35' W 117°53'1 2.5
2017-Oct-14 13:25N 33°36' W 117°53'1 2.8
2017-Oct-14 13:00N 33°36' W 117°54'0 0.0
2017-Oct-14 07:16N 33°36' W 117°54'0 1.5
2017-Oct-14 07:00N 33°36' W 117°53'3 5.8
2017-Oct-14 06:30N 33°36' W 117°57'1 0.9
2017-Oct-14 05:08N 33°37' W 117°58'0 1.6
2017-Oct-14 05:00N 33°37' W 117°58'0 0.0
2017-Oct-14 04:29N 33°37' W 117°58'0 0.0
2017-Oct-14 03:58N 33°37' W 117°58'0 0.0
2017-Oct-14 03:30N 33°37' W 117°58'0 0.0
2017-Oct-14 03:00N 33°37' W 117°58'2 4.9
2017-Oct-14 02:30N 33°36' W 117°55'2 3.1
2017-Oct-14 02:00N 33°36' W 117°54'0 0.4
2017-Oct-14 01:29N 33°36' W 117°54'1 2.0
2017-Oct-14 01:00N 33°36' W 117°53'5 9.6
2017-Oct-14 00:30N 33°32' W 117°57'510.4
2017-Oct-14 00:00N 33°29' W 118°02'610.5
2017-Oct-13 23:27N 33°26' W 118°07'510.5
2017-Oct-13 23:00N 33°23' W 118°12'510.4
2017-Oct-13 22:30N 33°20' W 118°17'2 3.5
2017-Oct-13 21:59N 33°18' W 118°18'1 1.6
2017-Oct-13 21:28N 33°18' W 118°19'2 1.7
2017-Oct-13 20:25N 33°18' W 118°21'3 4.3
2017-Oct-13 19:41N 33°19' W 118°25'1 2.2
2017-Oct-13 19:18N 33°18' W 118°24'0 0.0
2017-Oct-13 19:00N 33°18' W 118°24'0 0.3
2017-Oct-13 18:24N 33°18' W 118°25'1 1.4
2017-Oct-13 17:57N 33°18' W 118°24'0 0.0
2017-Oct-13 17:27N 33°18' W 118°24'4 5.6
2017-Oct-13 16:49N 33°18' W 118°20'3 9.9
2017-Oct-13 16:29N 33°19' W 118°16'610.4
2017-Oct-13 15:57N 33°23' W 118°11'510.3
2017-Oct-13 15:30N 33°26' W 118°07'510.2
2017-Oct-13 14:58N 33°29' W 118°02'510.2
2017-Oct-13 14:30N 33°32' W 117°57'510.1
2017-Oct-13 14:00N 33°35' W 117°53'1 2.5
2017-Oct-13 13:29N 33°36' W 117°54'  
Track history (hours):
 
Tides and Currents Weather Stations Pressure Air Temp Water Temp Dewpoint Dewpoint Depression Visibility Wind Speed Wind Dir Waves Ship Positions

Freelance

Owner: BROCKMAN, DONALD C, BALBOA, CA. More information available from US FCC via Universal Licensing System and Coast Guard Vessel Documentation Center.

Last reported at 2017-Oct-23 01:20 UTC. Time now 2017-Oct-23 02:41 UTC.
Position N 33°34' W 117°53'.

Length 25 m.

Type: Passenger vessel. MMSI: 366977380.

Date/timePositionNaut miles runAvg speedWind from/ knotsBaromVisibWave heightAir tempDewpointWater temp
2017-Oct-23 01:20N 33°34' W 117°53'610.8
2017-Oct-23 00:44N 33°30' W 117°58'510.7
2017-Oct-23 00:14N 33°27' W 118°04'310.7
2017-Oct-22 23:55N 33°25' W 118°07'3 0.4
2017-Oct-22 15:28N 33°28' W 118°08'510.5
2017-Oct-22 15:00N 33°30' W 118°02'510.4
2017-Oct-22 14:30N 33°33' W 117°57'4 8.9
2017-Oct-22 14:00N 33°36' W 117°53'1 2.4
2017-Oct-22 13:30N 33°36' W 117°54'4 0.5
2017-Oct-22 05:57N 33°37' W 117°58'0 0.1
2017-Oct-22 05:30N 33°37' W 117°58'0 0.5
2017-Oct-22 04:54N 33°37' W 117°58'0 0.0
2017-Oct-22 04:09N 33°37' W 117°58'0 0.7
2017-Oct-22 03:49N 33°37' W 117°58'0 0.1
2017-Oct-22 03:29N 33°37' W 117°58'6 1.8
2017-Oct-22 00:04N 33°31' W 117°59'110.1
2017-Oct-21 23:56N 33°30' W 118°01'510.2
2017-Oct-21 23:29N 33°28' W 118°05'11 9.9
2017-Oct-21 22:21N 33°21' W 118°16'2 5.7
2017-Oct-21 22:00N 33°20' W 118°18'  
2017-Oct-19 16:30N 33°19' W 118°16'25 1.6
2017-Oct-19 00:58N 33°35' W 117°53'510.6
2017-Oct-19 00:30N 33°31' W 117°55'510.4
2017-Oct-19 00:00N 33°28' W 118°01'910.6
2017-Oct-18 23:09N 33°22' W 118°09'211.0
2017-Oct-18 22:59N 33°21' W 118°11'510.4
2017-Oct-18 22:30N 33°19' W 118°16'510.2
2017-Oct-18 22:00N 33°18' W 118°22'4 0.9
2017-Oct-18 17:40N 33°19' W 118°18'0 1.7
2017-Oct-18 17:27N 33°19' W 118°18'1910.2
2017-Oct-18 15:37N 33°31' W 118°01'110.2
2017-Oct-18 15:30N 33°31' W 117°60'6 0.4
2017-Oct-18 01:08N 33°34' W 117°53'110.6
2017-Oct-18 01:00N 33°33' W 117°54'510.3
2017-Oct-18 00:30N 33°30' W 117°58'610.8
2017-Oct-17 23:59N 33°26' W 118°04'610.7
2017-Oct-17 23:25N 33°23' W 118°10'510.5
2017-Oct-17 22:54N 33°21' W 118°16'2 1.8
2017-Oct-17 21:35N 33°19' W 118°18'0 0.1
2017-Oct-17 21:27N 33°19' W 118°18'5 3.6
2017-Oct-17 20:02N 33°19' W 118°24'010.7
2017-Oct-17 20:00N 33°19' W 118°25'2 3.5
2017-Oct-17 19:27N 33°19' W 118°27'2 4.0
2017-Oct-17 19:00N 33°19' W 118°25'0 0.8
2017-Oct-17 18:30N 33°19' W 118°25'5 4.5
2017-Oct-17 17:28N 33°18' W 118°19'510.7
2017-Oct-17 17:00N 33°21' W 118°14'510.5
2017-Oct-17 16:30N 33°24' W 118°10'510.6
2017-Oct-17 16:00N 33°27' W 118°05'510.3
2017-Oct-17 15:30N 33°30' W 117°60'510.3
2017-Oct-17 15:00N 33°34' W 117°55'2 4.2
2017-Oct-17 14:25N 33°35' W 117°53'0 0.8
2017-Oct-17 14:00N 33°36' W 117°53'1 1.1
2017-Oct-17 12:55N 33°36' W 117°54'0 0.0
2017-Oct-17 12:30N 33°36' W 117°54'3 0.2
2017-Oct-17 00:05N 33°34' W 117°54'110.2
2017-Oct-17 00:00N 33°33' W 117°54'510.5
2017-Oct-16 23:30N 33°29' W 117°59'510.6
2017-Oct-16 23:01N 33°26' W 118°03'510.6
2017-Oct-16 22:30N 33°23' W 118°09'16 6.2
2017-Oct-16 19:53N 33°19' W 118°27'0 0.3
2017-Oct-16 19:16N 33°19' W 118°27'10 4.2
2017-Oct-16 16:59N 33°20' W 118°16'510.7
2017-Oct-16 16:30N 33°23' W 118°11'510.8
2017-Oct-16 16:00N 33°27' W 118°06'510.5
2017-Oct-16 15:30N 33°30' W 118°01'710.3
2017-Oct-16 14:47N 33°34' W 117°54'2 0.1
2017-Oct-16 01:11N 33°36' W 117°53'1 7.6
2017-Oct-16 01:00N 33°35' W 117°53'510.1
2017-Oct-16 00:30N 33°32' W 117°58'510.3
2017-Oct-16 00:00N 33°28' W 118°03'510.2
2017-Oct-15 23:30N 33°25' W 118°08'12 2.3
2017-Oct-15 18:12N 33°17' W 118°18'0 0.3
2017-Oct-15 18:01N 33°17' W 118°18'0 0.1
2017-Oct-15 17:30N 33°17' W 118°18'0 0.1
2017-Oct-15 17:00N 33°17' W 118°18'3 5.8
2017-Oct-15 16:30N 33°19' W 118°16'510.7
2017-Oct-15 16:01N 33°22' W 118°10'510.8
2017-Oct-15 15:31N 33°25' W 118°05'510.6
2017-Oct-15 15:00N 33°29' W 118°01'9 9.4
2017-Oct-15 14:01N 33°36' W 117°53'1 2.3
2017-Oct-15 13:30N 33°36' W 117°54'0 0.0
2017-Oct-15 06:41N 33°36' W 117°54'1 5.1
2017-Oct-15 06:30N 33°36' W 117°53'4 8.3
2017-Oct-15 06:01N 33°36' W 117°58'0 0.2
2017-Oct-15 05:31N 33°36' W 117°58'1 0.8
2017-Oct-15 04:39N 33°37' W 117°58'0 0.6
2017-Oct-15 04:02N 33°37' W 117°58'0 7.0
2017-Oct-15 04:00N 33°37' W 117°58'0 0.0
2017-Oct-15 03:30N 33°37' W 117°58'0 0.0
2017-Oct-15 03:00N 33°37' W 117°58'3 6.1
2017-Oct-15 02:30N 33°36' W 117°55'1 2.0
2017-Oct-15 02:00N 33°36' W 117°54'0 0.1
2017-Oct-15 01:30N 33°36' W 117°54'0 0.0
2017-Oct-15 01:01N 33°36' W 117°54'1 2.8
2017-Oct-15 00:30N 33°35' W 117°53'510.6
2017-Oct-15 00:00N 33°32' W 117°58'510.7
2017-Oct-14 23:31N 33°29' W 118°03'510.6
2017-Oct-14 23:01N 33°26' W 118°08'510.4
2017-Oct-14 22:30N 33°23' W 118°13'510.6
2017-Oct-14 22:00N 33°19' W 118°18'0 0.9
2017-Oct-14 21:30N 33°19' W 118°18'2 3.2
2017-Oct-14 21:00N 33°18' W 118°20'0 0.0
2017-Oct-14 20:30N 33°18' W 118°20'2 1.6
2017-Oct-14 19:30N 33°18' W 118°21'2 4.8
2017-Oct-14 19:00N 33°18' W 118°19'0 0.0
2017-Oct-14 18:30N 33°18' W 118°19'2 3.9
2017-Oct-14 17:59N 33°20' W 118°18'1 1.1
2017-Oct-14 17:30N 33°20' W 118°18'0 0.0
2017-Oct-14 17:00N 33°20' W 118°18'0 0.1
2017-Oct-14 16:30N 33°20' W 118°18'3 5.3
2017-Oct-14 16:00N 33°21' W 118°15'910.7
2017-Oct-14 15:07N 33°26' W 118°06'410.5
2017-Oct-14 14:46N 33°29' W 118°03'410.5
2017-Oct-14 14:25N 33°31' W 117°59'610.4
2017-Oct-14 13:48N 33°35' W 117°53'1 2.5
2017-Oct-14 13:25N 33°36' W 117°53'1 2.8
2017-Oct-14 13:00N 33°36' W 117°54'0 0.0
2017-Oct-14 07:16N 33°36' W 117°54'0 1.5
2017-Oct-14 07:00N 33°36' W 117°53'3 5.8
2017-Oct-14 06:30N 33°36' W 117°57'1 0.9
2017-Oct-14 05:08N 33°37' W 117°58'0 1.6
2017-Oct-14 05:00N 33°37' W 117°58'0 0.0
2017-Oct-14 04:29N 33°37' W 117°58'0 0.0
2017-Oct-14 03:58N 33°37' W 117°58'0 0.0
2017-Oct-14 03:30N 33°37' W 117°58'0 0.0
2017-Oct-14 03:00N 33°37' W 117°58'2 4.9
2017-Oct-14 02:30N 33°36' W 117°55'2 3.1
2017-Oct-14 02:00N 33°36' W 117°54'0 0.4
2017-Oct-14 01:29N 33°36' W 117°54'1 2.0
2017-Oct-14 01:00N 33°36' W 117°53'5 9.6
2017-Oct-14 00:30N 33°32' W 117°57'510.4
2017-Oct-14 00:00N 33°29' W 118°02'610.5
2017-Oct-13 23:27N 33°26' W 118°07'510.5
2017-Oct-13 23:00N 33°23' W 118°12'510.4
2017-Oct-13 22:30N 33°20' W 118°17'2 3.5
2017-Oct-13 21:59N 33°18' W 118°18'1 1.6
2017-Oct-13 21:28N 33°18' W 118°19'2 1.7
2017-Oct-13 20:25N 33°18' W 118°21'3 4.3
2017-Oct-13 19:41N 33°19' W 118°25'1 2.2
2017-Oct-13 19:18N 33°18' W 118°24'0 0.0
2017-Oct-13 19:00N 33°18' W 118°24'0 0.3
2017-Oct-13 18:24N 33°18' W 118°25'1 1.4
2017-Oct-13 17:57N 33°18' W 118°24'0 0.0
2017-Oct-13 17:27N 33°18' W 118°24'4 5.6
2017-Oct-13 16:49N 33°18' W 118°20'3 9.9
2017-Oct-13 16:29N 33°19' W 118°16'610.4
2017-Oct-13 15:57N 33°23' W 118°11'510.3
2017-Oct-13 15:30N 33°26' W 118°07'510.2
2017-Oct-13 14:58N 33°29' W 118°02'510.2
2017-Oct-13 14:30N 33°32' W 117°57'510.1
2017-Oct-13 14:00N 33°35' W 117°53'1 2.5
2017-Oct-13 13:29N 33°36' W 117°54'  

Dump ship's entire track history